sensor_id;sensor_type;location;lat;lon;timestamp;P1;durP1;ratioP1;P2;durP2;ratioP2
75576;SDS011;64157;50.138;14.544;2022-11-11T00:00:35;15.05;;;6.88;;
75576;SDS011;64157;50.138;14.544;2022-11-11T00:03:01;15.85;;;7.05;;
75576;SDS011;64157;50.138;14.544;2022-11-11T00:05:27;10.88;;;6.80;;
75576;SDS011;64157;50.138;14.544;2022-11-11T00:07:53;12.18;;;5.72;;
75576;SDS011;64157;50.138;14.544;2022-11-11T00:10:26;12.13;;;5.90;;
75576;SDS011;64157;50.138;14.544;2022-11-11T00:12:53;14.55;;;7.72;;
75576;SDS011;64157;50.138;14.544;2022-11-11T00:15:20;14.02;;;8.57;;
75576;SDS011;64157;50.138;14.544;2022-11-11T00:17:45;10.98;;;6.60;;
75576;SDS011;64157;50.138;14.544;2022-11-11T00:20:29;16.95;;;7.10;;
75576;SDS011;64157;50.138;14.544;2022-11-11T00:23:20;16.10;;;8.20;;
75576;SDS011;64157;50.138;14.544;2022-11-11T00:26:06;12.70;;;8.10;;
75576;SDS011;64157;50.138;14.544;2022-11-11T00:28:32;15.20;;;7.78;;
75576;SDS011;64157;50.138;14.544;2022-11-11T00:31:04;18.40;;;8.23;;
75576;SDS011;64157;50.138;14.544;2022-11-11T00:33:31;16.13;;;8.05;;
75576;SDS011;64157;50.138;14.544;2022-11-11T00:35:57;11.05;;;6.43;;
75576;SDS011;64157;50.138;14.544;2022-11-11T00:38:24;13.68;;;7.68;;
75576;SDS011;64157;50.138;14.544;2022-11-11T00:41:08;15.52;;;8.75;;
75576;SDS011;64157;50.138;14.544;2022-11-11T00:43:34;19.25;;;9.02;;
75576;SDS011;64157;50.138;14.544;2022-11-11T00:45:59;17.02;;;9.90;;
75576;SDS011;64157;50.138;14.544;2022-11-11T00:48:43;18.63;;;9.77;;
75576;SDS011;64157;50.138;14.544;2022-11-11T00:51:27;23.15;;;8.90;;
75576;SDS011;64157;50.138;14.544;2022-11-11T00:53:53;27.48;;;11.10;;
75576;SDS011;64157;50.138;14.544;2022-11-11T00:56:19;21.17;;;10.55;;
75576;SDS011;64157;50.138;14.544;2022-11-11T00:58:45;21.48;;;9.93;;
75576;SDS011;64157;50.138;14.544;2022-11-11T01:01:11;20.67;;;11.55;;
75576;SDS011;64157;50.138;14.544;2022-11-11T01:03:36;18.63;;;10.60;;
75576;SDS011;64157;50.138;14.544;2022-11-11T01:06:02;19.98;;;10.98;;
75576;SDS011;64157;50.138;14.544;2022-11-11T01:08:29;19.13;;;10.20;;
75576;SDS011;64157;50.138;14.544;2022-11-11T01:10:55;17.75;;;9.40;;
75576;SDS011;64157;50.138;14.544;2022-11-11T01:13:25;23.08;;;9.73;;
75576;SDS011;64157;50.138;14.544;2022-11-11T01:15:53;21.77;;;10.10;;
75576;SDS011;64157;50.138;14.544;2022-11-11T01:18:24;23.35;;;10.02;;
75576;SDS011;64157;50.138;14.544;2022-11-11T01:23:29;22.08;;;9.90;;
75576;SDS011;64157;50.138;14.544;2022-11-11T01:26:00;17.90;;;9.15;;
75576;SDS011;64157;50.138;14.544;2022-11-11T01:28:27;18.67;;;10.23;;
75576;SDS011;64157;50.138;14.544;2022-11-11T01:30:52;20.02;;;9.98;;
75576;SDS011;64157;50.138;14.544;2022-11-11T01:33:17;19.00;;;9.50;;
75576;SDS011;64157;50.138;14.544;2022-11-11T01:35:43;22.90;;;10.55;;
75576;SDS011;64157;50.138;14.544;2022-11-11T01:38:09;20.13;;;9.60;;
75576;SDS011;64157;50.138;14.544;2022-11-11T01:40:41;20.90;;;10.05;;
75576;SDS011;64157;50.138;14.544;2022-11-11T01:48:30;17.40;;;9.23;;
75576;SDS011;64157;50.138;14.544;2022-11-11T01:51:22;17.58;;;10.15;;
75576;SDS011;64157;50.138;14.544;2022-11-11T01:53:55;16.25;;;8.65;;
75576;SDS011;64157;50.138;14.544;2022-11-11T01:56:26;13.43;;;6.43;;
75576;SDS011;64157;50.138;14.544;2022-11-11T01:58:53;21.27;;;10.57;;
75576;SDS011;64157;50.138;14.544;2022-11-11T02:01:22;14.02;;;7.15;;
75576;SDS011;64157;50.138;14.544;2022-11-11T02:03:48;20.40;;;11.27;;
75576;SDS011;64157;50.138;14.544;2022-11-11T02:06:35;19.58;;;9.55;;
75576;SDS011;64157;50.138;14.544;2022-11-11T02:09:02;16.40;;;9.20;;
75576;SDS011;64157;50.138;14.544;2022-11-11T02:11:29;17.33;;;8.45;;
75576;SDS011;64157;50.138;14.544;2022-11-11T02:14:15;17.55;;;8.05;;
75576;SDS011;64157;50.138;14.544;2022-11-11T02:16:59;12.68;;;7.65;;
75576;SDS011;64157;50.138;14.544;2022-11-11T02:19:28;17.45;;;9.55;;
75576;SDS011;64157;50.138;14.544;2022-11-11T02:22:01;17.58;;;6.97;;
75576;SDS011;64157;50.138;14.544;2022-11-11T02:26:57;14.27;;;8.30;;
75576;SDS011;64157;50.138;14.544;2022-11-11T02:29:24;21.85;;;9.70;;
75576;SDS011;64157;50.138;14.544;2022-11-11T02:31:50;10.45;;;7.35;;
75576;SDS011;64157;50.138;14.544;2022-11-11T02:34:15;22.60;;;9.73;;
75576;SDS011;64157;50.138;14.544;2022-11-11T02:36:41;15.60;;;8.40;;
75576;SDS011;64157;50.138;14.544;2022-11-11T02:39:06;14.77;;;8.15;;
75576;SDS011;64157;50.138;14.544;2022-11-11T02:41:32;18.75;;;8.48;;
75576;SDS011;64157;50.138;14.544;2022-11-11T02:44:16;20.98;;;8.90;;
75576;SDS011;64157;50.138;14.544;2022-11-11T02:46:42;14.60;;;8.52;;
75576;SDS011;64157;50.138;14.544;2022-11-11T02:49:07;14.27;;;7.85;;
75576;SDS011;64157;50.138;14.544;2022-11-11T02:51:32;15.68;;;8.73;;
75576;SDS011;64157;50.138;14.544;2022-11-11T02:53:58;12.27;;;7.78;;
75576;SDS011;64157;50.138;14.544;2022-11-11T02:56:24;21.90;;;7.93;;
75576;SDS011;64157;50.138;14.544;2022-11-11T02:59:08;17.17;;;9.25;;
75576;SDS011;64157;50.138;14.544;2022-11-11T03:01:33;13.55;;;8.90;;
75576;SDS011;64157;50.138;14.544;2022-11-11T03:03:59;17.75;;;8.65;;
75576;SDS011;64157;50.138;14.544;2022-11-11T03:06:24;16.15;;;7.63;;
75576;SDS011;64157;50.138;14.544;2022-11-11T03:08:49;13.82;;;8.27;;
75576;SDS011;64157;50.138;14.544;2022-11-11T03:11:15;15.82;;;8.95;;
75576;SDS011;64157;50.138;14.544;2022-11-11T03:13:51;17.15;;;9.00;;
75576;SDS011;64157;50.138;14.544;2022-11-11T03:16:20;22.45;;;9.27;;
75576;SDS011;64157;50.138;14.544;2022-11-11T03:19:04;18.50;;;8.55;;
75576;SDS011;64157;50.138;14.544;2022-11-11T03:21:29;23.05;;;10.10;;
75576;SDS011;64157;50.138;14.544;2022-11-11T03:23:55;13.18;;;7.53;;
75576;SDS011;64157;50.138;14.544;2022-11-11T03:26:20;19.42;;;9.63;;
75576;SDS011;64157;50.138;14.544;2022-11-11T03:28:45;27.20;;;10.13;;
75576;SDS011;64157;50.138;14.544;2022-11-11T03:31:11;18.33;;;9.70;;
75576;SDS011;64157;50.138;14.544;2022-11-11T03:33:36;15.13;;;8.68;;
75576;SDS011;64157;50.138;14.544;2022-11-11T03:36:02;18.35;;;9.48;;
75576;SDS011;64157;50.138;14.544;2022-11-11T03:38:27;14.43;;;7.80;;
75576;SDS011;64157;50.138;14.544;2022-11-11T03:40:54;12.73;;;7.75;;
75576;SDS011;64157;50.138;14.544;2022-11-11T03:43:22;14.93;;;7.63;;
75576;SDS011;64157;50.138;14.544;2022-11-11T03:45:50;13.55;;;8.32;;
75576;SDS011;64157;50.138;14.544;2022-11-11T03:48:16;18.48;;;9.65;;
75576;SDS011;64157;50.138;14.544;2022-11-11T03:50:42;10.70;;;6.53;;
75576;SDS011;64157;50.138;14.544;2022-11-11T03:53:07;15.50;;;8.63;;
75576;SDS011;64157;50.138;14.544;2022-11-11T03:55:33;16.25;;;8.20;;
75576;SDS011;64157;50.138;14.544;2022-11-11T03:57:58;21.95;;;10.40;;
75576;SDS011;64157;50.138;14.544;2022-11-11T04:00:25;14.32;;;8.00;;
75576;SDS011;64157;50.138;14.544;2022-11-11T04:03:00;11.75;;;7.57;;
75576;SDS011;64157;50.138;14.544;2022-11-11T04:05:54;17.98;;;8.88;;
75576;SDS011;64157;50.138;14.544;2022-11-11T04:08:45;11.43;;;6.28;;
75576;SDS011;64157;50.138;14.544;2022-11-11T04:11:30;14.63;;;7.30;;
75576;SDS011;64157;50.138;14.544;2022-11-11T04:14:00;12.07;;;6.95;;
75576;SDS011;64157;50.138;14.544;2022-11-11T04:16:50;19.90;;;9.27;;
75576;SDS011;64157;50.138;14.544;2022-11-11T04:19:15;10.20;;;5.50;;
75576;SDS011;64157;50.138;14.544;2022-11-11T04:21:59;18.67;;;9.25;;
75576;SDS011;64157;50.138;14.544;2022-11-11T04:24:25;13.98;;;7.97;;
75576;SDS011;64157;50.138;14.544;2022-11-11T04:27:11;17.27;;;9.00;;
75576;SDS011;64157;50.138;14.544;2022-11-11T04:29:38;14.10;;;7.70;;
75576;SDS011;64157;50.138;14.544;2022-11-11T04:32:11;12.15;;;7.90;;
75576;SDS011;64157;50.138;14.544;2022-11-11T04:34:59;15.77;;;9.02;;
75576;SDS011;64157;50.138;14.544;2022-11-11T04:37:36;17.85;;;9.93;;
75576;SDS011;64157;50.138;14.544;2022-11-11T04:40:10;19.17;;;8.52;;
75576;SDS011;64157;50.138;14.544;2022-11-11T04:43:11;14.70;;;7.00;;
75576;SDS011;64157;50.138;14.544;2022-11-11T04:45:37;11.57;;;6.78;;
75576;SDS011;64157;50.138;14.544;2022-11-11T04:48:06;18.27;;;9.45;;
75576;SDS011;64157;50.138;14.544;2022-11-11T04:50:35;22.00;;;10.13;;
75576;SDS011;64157;50.138;14.544;2022-11-11T04:53:02;20.63;;;10.02;;
75576;SDS011;64157;50.138;14.544;2022-11-11T04:55:29;16.90;;;8.88;;
75576;SDS011;64157;50.138;14.544;2022-11-11T04:58:13;13.88;;;8.63;;
75576;SDS011;64157;50.138;14.544;2022-11-11T05:00:39;18.83;;;10.30;;
75576;SDS011;64157;50.138;14.544;2022-11-11T05:03:05;12.13;;;7.20;;
75576;SDS011;64157;50.138;14.544;2022-11-11T05:06:01;15.27;;;8.77;;
75576;SDS011;64157;50.138;14.544;2022-11-11T05:08:48;13.70;;;7.05;;
75576;SDS011;64157;50.138;14.544;2022-11-11T05:11:29;13.60;;;7.05;;
75576;SDS011;64157;50.138;14.544;2022-11-11T05:13:57;16.80;;;8.93;;
75576;SDS011;64157;50.138;14.544;2022-11-11T05:16:46;14.98;;;8.07;;
75576;SDS011;64157;50.138;14.544;2022-11-11T05:19:32;11.40;;;7.43;;
75576;SDS011;64157;50.138;14.544;2022-11-11T05:22:24;12.35;;;7.10;;
75576;SDS011;64157;50.138;14.544;2022-11-11T05:24:58;19.95;;;10.60;;
75576;SDS011;64157;50.138;14.544;2022-11-11T05:27:42;15.90;;;7.90;;
75576;SDS011;64157;50.138;14.544;2022-11-11T05:30:08;19.85;;;9.15;;
75576;SDS011;64157;50.138;14.544;2022-11-11T05:32:35;25.95;;;10.55;;
75576;SDS011;64157;50.138;14.544;2022-11-11T05:35:01;22.20;;;11.55;;
75576;SDS011;64157;50.138;14.544;2022-11-11T05:37:27;20.40;;;10.82;;
75576;SDS011;64157;50.138;14.544;2022-11-11T05:39:53;20.42;;;11.13;;
75576;SDS011;64157;50.138;14.544;2022-11-11T05:42:18;23.52;;;11.50;;
75576;SDS011;64157;50.138;14.544;2022-11-11T05:44:44;19.95;;;11.25;;
75576;SDS011;64157;50.138;14.544;2022-11-11T05:47:09;21.90;;;10.90;;
75576;SDS011;64157;50.138;14.544;2022-11-11T05:49:35;21.30;;;11.32;;
75576;SDS011;64157;50.138;14.544;2022-11-11T05:52:00;20.23;;;10.88;;
75576;SDS011;64157;50.138;14.544;2022-11-11T05:54:26;20.75;;;11.85;;
75576;SDS011;64157;50.138;14.544;2022-11-11T05:56:51;23.83;;;10.80;;
75576;SDS011;64157;50.138;14.544;2022-11-11T05:59:17;22.30;;;11.70;;
75576;SDS011;64157;50.138;14.544;2022-11-11T06:01:42;25.42;;;11.95;;
75576;SDS011;64157;50.138;14.544;2022-11-11T06:04:08;19.60;;;11.40;;
75576;SDS011;64157;50.138;14.544;2022-11-11T06:06:34;20.35;;;9.80;;
75576;SDS011;64157;50.138;14.544;2022-11-11T06:09:00;17.20;;;10.45;;
75576;SDS011;64157;50.138;14.544;2022-11-11T06:11:26;18.65;;;10.15;;
75576;SDS011;64157;50.138;14.544;2022-11-11T06:13:53;19.80;;;10.23;;
75576;SDS011;64157;50.138;14.544;2022-11-11T06:16:18;18.98;;;11.13;;
75576;SDS011;64157;50.138;14.544;2022-11-11T06:18:44;17.05;;;10.05;;
75576;SDS011;64157;50.138;14.544;2022-11-11T06:21:10;21.33;;;10.18;;
75576;SDS011;64157;50.138;14.544;2022-11-11T06:23:36;16.67;;;9.07;;
75576;SDS011;64157;50.138;14.544;2022-11-11T06:26:02;22.23;;;10.68;;
75576;SDS011;64157;50.138;14.544;2022-11-11T06:28:36;17.25;;;10.77;;
75576;SDS011;64157;50.138;14.544;2022-11-11T06:31:10;16.10;;;9.00;;
75576;SDS011;64157;50.138;14.544;2022-11-11T06:33:40;18.50;;;9.68;;
75576;SDS011;64157;50.138;14.544;2022-11-11T06:36:06;21.30;;;10.13;;
75576;SDS011;64157;50.138;14.544;2022-11-11T06:38:33;18.00;;;10.13;;
75576;SDS011;64157;50.138;14.544;2022-11-11T06:40:59;23.48;;;11.25;;
75576;SDS011;64157;50.138;14.544;2022-11-11T06:43:24;22.10;;;12.00;;
75576;SDS011;64157;50.138;14.544;2022-11-11T06:45:50;22.90;;;11.18;;
75576;SDS011;64157;50.138;14.544;2022-11-11T06:48:17;18.38;;;9.75;;
75576;SDS011;64157;50.138;14.544;2022-11-11T06:50:43;15.70;;;9.57;;
75576;SDS011;64157;50.138;14.544;2022-11-11T06:53:10;18.92;;;10.27;;
75576;SDS011;64157;50.138;14.544;2022-11-11T06:55:38;11.93;;;7.68;;
75576;SDS011;64157;50.138;14.544;2022-11-11T06:58:07;15.75;;;8.57;;
75576;SDS011;64157;50.138;14.544;2022-11-11T07:00:34;17.25;;;9.98;;
75576;SDS011;64157;50.138;14.544;2022-11-11T07:03:01;19.20;;;10.65;;
75576;SDS011;64157;50.138;14.544;2022-11-11T07:05:27;21.83;;;10.75;;
75576;SDS011;64157;50.138;14.544;2022-11-11T07:07:52;19.05;;;9.80;;
75576;SDS011;64157;50.138;14.544;2022-11-11T07:10:18;21.02;;;9.95;;
75576;SDS011;64157;50.138;14.544;2022-11-11T07:12:43;17.25;;;9.18;;
75576;SDS011;64157;50.138;14.544;2022-11-11T07:15:09;18.27;;;10.65;;
75576;SDS011;64157;50.138;14.544;2022-11-11T07:17:35;18.83;;;8.82;;
75576;SDS011;64157;50.138;14.544;2022-11-11T07:20:00;17.30;;;9.63;;
75576;SDS011;64157;50.138;14.544;2022-11-11T07:22:26;15.38;;;9.18;;
75576;SDS011;64157;50.138;14.544;2022-11-11T07:24:51;16.40;;;9.35;;
75576;SDS011;64157;50.138;14.544;2022-11-11T07:27:17;16.98;;;10.27;;
75576;SDS011;64157;50.138;14.544;2022-11-11T07:29:42;19.88;;;12.52;;
75576;SDS011;64157;50.138;14.544;2022-11-11T07:32:08;17.27;;;11.90;;
75576;SDS011;64157;50.138;14.544;2022-11-11T07:34:33;25.50;;;14.18;;
75576;SDS011;64157;50.138;14.544;2022-11-11T07:36:59;17.60;;;11.25;;
75576;SDS011;64157;50.138;14.544;2022-11-11T07:39:25;21.15;;;10.10;;
75576;SDS011;64157;50.138;14.544;2022-11-11T07:41:50;20.63;;;10.73;;
75576;SDS011;64157;50.138;14.544;2022-11-11T07:44:15;20.17;;;9.52;;
75576;SDS011;64157;50.138;14.544;2022-11-11T07:46:41;18.15;;;10.80;;
75576;SDS011;64157;50.138;14.544;2022-11-11T07:49:06;17.40;;;9.93;;
75576;SDS011;64157;50.138;14.544;2022-11-11T07:51:32;18.25;;;9.98;;
75576;SDS011;64157;50.138;14.544;2022-11-11T07:53:57;19.27;;;9.90;;
75576;SDS011;64157;50.138;14.544;2022-11-11T07:56:23;19.17;;;10.52;;
75576;SDS011;64157;50.138;14.544;2022-11-11T07:58:48;19.75;;;10.45;;
75576;SDS011;64157;50.138;14.544;2022-11-11T08:01:14;14.57;;;8.80;;
75576;SDS011;64157;50.138;14.544;2022-11-11T08:03:39;17.58;;;10.20;;
75576;SDS011;64157;50.138;14.544;2022-11-11T08:06:22;15.23;;;8.48;;
75576;SDS011;64157;50.138;14.544;2022-11-11T08:08:48;17.75;;;9.40;;
75576;SDS011;64157;50.138;14.544;2022-11-11T08:11:15;23.20;;;9.35;;
75576;SDS011;64157;50.138;14.544;2022-11-11T08:13:42;12.50;;;7.05;;
75576;SDS011;64157;50.138;14.544;2022-11-11T08:16:12;14.75;;;9.25;;
75576;SDS011;64157;50.138;14.544;2022-11-11T08:18:39;15.13;;;9.25;;
75576;SDS011;64157;50.138;14.544;2022-11-11T08:21:05;19.23;;;9.98;;
75576;SDS011;64157;50.138;14.544;2022-11-11T08:23:32;16.98;;;8.93;;
75576;SDS011;64157;50.138;14.544;2022-11-11T08:26:01;17.27;;;9.95;;
75576;SDS011;64157;50.138;14.544;2022-11-11T08:28:28;17.92;;;9.30;;
75576;SDS011;64157;50.138;14.544;2022-11-11T08:30:57;19.80;;;10.60;;
75576;SDS011;64157;50.138;14.544;2022-11-11T08:33:23;16.42;;;9.95;;
75576;SDS011;64157;50.138;14.544;2022-11-11T08:35:49;16.73;;;9.60;;
75576;SDS011;64157;50.138;14.544;2022-11-11T08:38:17;22.02;;;9.93;;
75576;SDS011;64157;50.138;14.544;2022-11-11T08:40:43;14.05;;;7.97;;
75576;SDS011;64157;50.138;14.544;2022-11-11T08:43:08;20.08;;;10.27;;
75576;SDS011;64157;50.138;14.544;2022-11-11T08:45:33;22.45;;;11.18;;
75576;SDS011;64157;50.138;14.544;2022-11-11T08:47:59;23.20;;;10.18;;
75576;SDS011;64157;50.138;14.544;2022-11-11T08:50:24;14.60;;;9.02;;
75576;SDS011;64157;50.138;14.544;2022-11-11T08:52:50;14.80;;;8.00;;
75576;SDS011;64157;50.138;14.544;2022-11-11T08:55:16;12.98;;;8.43;;
75576;SDS011;64157;50.138;14.544;2022-11-11T08:57:42;14.35;;;8.68;;
75576;SDS011;64157;50.138;14.544;2022-11-11T09:00:08;16.42;;;9.70;;
75576;SDS011;64157;50.138;14.544;2022-11-11T09:02:35;17.73;;;8.93;;
75576;SDS011;64157;50.138;14.544;2022-11-11T09:05:01;17.33;;;8.75;;
75576;SDS011;64157;50.138;14.544;2022-11-11T09:07:29;13.45;;;7.72;;
75576;SDS011;64157;50.138;14.544;2022-11-11T09:09:54;13.98;;;7.10;;
75576;SDS011;64157;50.138;14.544;2022-11-11T09:12:20;11.25;;;6.95;;
75576;SDS011;64157;50.138;14.544;2022-11-11T09:14:45;15.82;;;7.40;;
75576;SDS011;64157;50.138;14.544;2022-11-11T09:17:12;9.07;;;4.95;;
75576;SDS011;64157;50.138;14.544;2022-11-11T09:19:37;9.48;;;6.25;;
75576;SDS011;64157;50.138;14.544;2022-11-11T09:22:03;12.70;;;6.38;;
75576;SDS011;64157;50.138;14.544;2022-11-11T09:24:28;10.82;;;6.10;;
75576;SDS011;64157;50.138;14.544;2022-11-11T09:26:53;14.38;;;6.40;;
75576;SDS011;64157;50.138;14.544;2022-11-11T09:29:19;11.45;;;6.63;;
75576;SDS011;64157;50.138;14.544;2022-11-11T09:31:45;12.23;;;7.10;;
75576;SDS011;64157;50.138;14.544;2022-11-11T09:34:11;14.75;;;7.05;;
75576;SDS011;64157;50.138;14.544;2022-11-11T09:36:37;12.90;;;7.30;;
75576;SDS011;64157;50.138;14.544;2022-11-11T09:39:02;19.75;;;7.53;;
75576;SDS011;64157;50.138;14.544;2022-11-11T09:44:14;14.30;;;6.97;;
75576;SDS011;64157;50.138;14.544;2022-11-11T09:46:57;15.68;;;7.07;;
75576;SDS011;64157;50.138;14.544;2022-11-11T09:51:58;15.27;;;6.80;;
75576;SDS011;64157;50.138;14.544;2022-11-11T09:57:13;11.98;;;6.82;;
75576;SDS011;64157;50.138;14.544;2022-11-11T09:59:47;19.95;;;7.40;;
75576;SDS011;64157;50.138;14.544;2022-11-11T10:02:38;14.80;;;7.50;;
75576;SDS011;64157;50.138;14.544;2022-11-11T10:06:07;11.30;;;7.53;;
75576;SDS011;64157;50.138;14.544;2022-11-11T10:08:55;13.43;;;7.45;;
75576;SDS011;64157;50.138;14.544;2022-11-11T10:11:02;10.77;;;6.38;;
75576;SDS011;64157;50.138;14.544;2022-11-11T10:13:36;10.85;;;6.82;;
75576;SDS011;64157;50.138;14.544;2022-11-11T10:16:08;14.30;;;6.57;;
75576;SDS011;64157;50.138;14.544;2022-11-11T10:18:47;15.15;;;6.97;;
75576;SDS011;64157;50.138;14.544;2022-11-11T10:24:28;10.32;;;6.40;;
75576;SDS011;64157;50.138;14.544;2022-11-11T10:26:54;15.43;;;6.68;;
75576;SDS011;64157;50.138;14.544;2022-11-11T10:29:20;16.05;;;7.95;;
75576;SDS011;64157;50.138;14.544;2022-11-11T10:31:57;13.23;;;8.80;;
75576;SDS011;64157;50.138;14.544;2022-11-11T10:34:28;17.05;;;9.65;;
75576;SDS011;64157;50.138;14.544;2022-11-11T10:36:57;15.60;;;7.93;;
75576;SDS011;64157;50.138;14.544;2022-11-11T10:39:26;15.88;;;8.15;;
75576;SDS011;64157;50.138;14.544;2022-11-11T10:42:13;17.75;;;8.73;;
75576;SDS011;64157;50.138;14.544;2022-11-11T10:44:42;12.43;;;8.85;;
75576;SDS011;64157;50.138;14.544;2022-11-11T10:47:14;15.90;;;9.02;;
75576;SDS011;64157;50.138;14.544;2022-11-11T10:50:05;21.40;;;9.55;;
75576;SDS011;64157;50.138;14.544;2022-11-11T10:52:34;17.00;;;9.85;;
75576;SDS011;64157;50.138;14.544;2022-11-11T10:55:04;21.38;;;9.20;;
75576;SDS011;64157;50.138;14.544;2022-11-11T11:00:06;19.17;;;8.23;;
75576;SDS011;64157;50.138;14.544;2022-11-11T11:08:10;14.95;;;9.35;;
75576;SDS011;64157;50.138;14.544;2022-11-11T11:10:44;11.25;;;7.32;;
75576;SDS011;64157;50.138;14.544;2022-11-11T11:13:16;11.38;;;7.78;;
75576;SDS011;64157;50.138;14.544;2022-11-11T11:15:53;15.70;;;8.00;;
75576;SDS011;64157;50.138;14.544;2022-11-11T11:18:21;16.83;;;7.53;;
75576;SDS011;64157;50.138;14.544;2022-11-11T11:20:57;13.48;;;7.53;;
75576;SDS011;64157;50.138;14.544;2022-11-11T11:23:44;14.30;;;7.82;;
75576;SDS011;64157;50.138;14.544;2022-11-11T11:26:10;11.50;;;6.97;;
75576;SDS011;64157;50.138;14.544;2022-11-11T11:31:23;19.45;;;8.95;;
75576;SDS011;64157;50.138;14.544;2022-11-11T11:34:00;13.55;;;8.05;;
75576;SDS011;64157;50.138;14.544;2022-11-11T11:36:26;16.45;;;7.72;;
75576;SDS011;64157;50.138;14.544;2022-11-11T11:38:51;15.10;;;7.15;;
75576;SDS011;64157;50.138;14.544;2022-11-11T11:41:17;16.85;;;8.95;;
75576;SDS011;64157;50.138;14.544;2022-11-11T11:44:02;13.95;;;7.88;;
75576;SDS011;64157;50.138;14.544;2022-11-11T11:46:36;13.45;;;9.38;;
75576;SDS011;64157;50.138;14.544;2022-11-11T11:49:11;25.30;;;13.82;;
75576;SDS011;64157;50.138;14.544;2022-11-11T11:54:24;17.25;;;8.38;;
75576;SDS011;64157;50.138;14.544;2022-11-11T11:56:57;14.27;;;6.95;;
75576;SDS011;64157;50.138;14.544;2022-11-11T12:13:15;17.05;;;8.63;;
75576;SDS011;64157;50.138;14.544;2022-11-11T12:21:32;17.80;;;7.30;;
75576;SDS011;64157;50.138;14.544;2022-11-11T12:24:28;14.07;;;8.57;;
75576;SDS011;64157;50.138;14.544;2022-11-11T12:46:10;16.90;;;8.75;;
75576;SDS011;64157;50.138;14.544;2022-11-11T12:48:42;17.33;;;8.88;;
75576;SDS011;64157;50.138;14.544;2022-11-11T13:05:05;10.88;;;7.20;;
75576;SDS011;64157;50.138;14.544;2022-11-11T13:13:49;20.83;;;10.02;;
75576;SDS011;64157;50.138;14.544;2022-11-11T13:16:23;14.18;;;7.93;;
75576;SDS011;64157;50.138;14.544;2022-11-11T13:18:50;11.10;;;6.95;;
75576;SDS011;64157;50.138;14.544;2022-11-11T13:21:18;13.68;;;7.40;;
75576;SDS011;64157;50.138;14.544;2022-11-11T13:23:48;14.90;;;6.53;;
75576;SDS011;64157;50.138;14.544;2022-11-11T13:28:48;10.00;;;6.68;;
75576;SDS011;64157;50.138;14.544;2022-11-11T13:34:01;21.15;;;10.73;;
75576;SDS011;64157;50.138;14.544;2022-11-11T13:36:30;22.15;;;11.43;;
75576;SDS011;64157;50.138;14.544;2022-11-11T13:39:03;13.73;;;7.10;;
75576;SDS011;64157;50.138;14.544;2022-11-11T13:41:33;12.95;;;7.10;;
75576;SDS011;64157;50.138;14.544;2022-11-11T13:44:03;11.55;;;6.90;;
75576;SDS011;64157;50.138;14.544;2022-11-11T13:46:47;11.55;;;7.95;;
75576;SDS011;64157;50.138;14.544;2022-11-11T13:49:26;13.65;;;7.60;;
75576;SDS011;64157;50.138;14.544;2022-11-11T13:51:56;13.10;;;7.47;;
75576;SDS011;64157;50.138;14.544;2022-11-11T13:54:30;16.08;;;8.80;;
75576;SDS011;64157;50.138;14.544;2022-11-11T13:57:04;17.48;;;7.47;;
75576;SDS011;64157;50.138;14.544;2022-11-11T13:59:37;14.18;;;7.00;;
75576;SDS011;64157;50.138;14.544;2022-11-11T14:12:43;11.90;;;7.60;;
75576;SDS011;64157;50.138;14.544;2022-11-11T14:17:55;15.35;;;6.80;;
75576;SDS011;64157;50.138;14.544;2022-11-11T14:20:40;16.08;;;6.50;;
75576;SDS011;64157;50.138;14.544;2022-11-11T14:26:36;12.27;;;6.93;;
75576;SDS011;64157;50.138;14.544;2022-11-11T14:57:37;24.10;;;13.95;;
75576;SDS011;64157;50.138;14.544;2022-11-11T15:00:16;27.67;;;15.13;;
75576;SDS011;64157;50.138;14.544;2022-11-11T15:02:53;27.75;;;16.00;;
75576;SDS011;64157;50.138;14.544;2022-11-11T15:05:26;25.70;;;15.40;;
75576;SDS011;64157;50.138;14.544;2022-11-11T15:16:49;27.42;;;17.55;;
75576;SDS011;64157;50.138;14.544;2022-11-11T15:27:52;30.33;;;17.00;;
75576;SDS011;64157;50.138;14.544;2022-11-11T15:30:21;54.40;;;22.67;;
75576;SDS011;64157;50.138;14.544;2022-11-11T15:37:51;35.33;;;19.58;;
75576;SDS011;64157;50.138;14.544;2022-11-11T15:40:24;24.50;;;12.98;;
75576;SDS011;64157;50.138;14.544;2022-11-11T15:42:54;19.88;;;11.93;;
75576;SDS011;64157;50.138;14.544;2022-11-11T15:47:52;41.58;;;22.83;;
75576;SDS011;64157;50.138;14.544;2022-11-11T15:52:55;43.42;;;24.50;;
75576;SDS011;64157;50.138;14.544;2022-11-11T15:55:23;41.83;;;24.15;;
75576;SDS011;64157;50.138;14.544;2022-11-11T15:57:50;50.50;;;26.35;;
75576;SDS011;64157;50.138;14.544;2022-11-11T16:02:47;50.97;;;25.58;;
75576;SDS011;64157;50.138;14.544;2022-11-11T16:05:22;40.95;;;24.27;;
75576;SDS011;64157;50.138;14.544;2022-11-11T16:07:49;37.05;;;23.90;;
75576;SDS011;64157;50.138;14.544;2022-11-11T16:10:27;46.25;;;27.35;;
75576;SDS011;64157;50.138;14.544;2022-11-11T16:12:56;45.00;;;25.23;;
75576;SDS011;64157;50.138;14.544;2022-11-11T16:18:00;59.65;;;30.67;;
75576;SDS011;64157;50.138;14.544;2022-11-11T16:20:37;45.10;;;27.02;;
75576;SDS011;64157;50.138;14.544;2022-11-11T16:23:08;45.70;;;28.85;;
75576;SDS011;64157;50.138;14.544;2022-11-11T16:25:40;54.80;;;31.35;;
75576;SDS011;64157;50.138;14.544;2022-11-11T16:28:06;52.28;;;29.00;;
75576;SDS011;64157;50.138;14.544;2022-11-11T16:30:35;49.80;;;28.58;;
75576;SDS011;64157;50.138;14.544;2022-11-11T16:33:02;50.38;;;28.65;;
75576;SDS011;64157;50.138;14.544;2022-11-11T16:35:34;51.30;;;29.40;;
75576;SDS011;64157;50.138;14.544;2022-11-11T16:38:01;48.95;;;28.45;;
75576;SDS011;64157;50.138;14.544;2022-11-11T16:43:40;49.42;;;28.92;;
75576;SDS011;64157;50.138;14.544;2022-11-11T16:45:51;53.50;;;28.25;;
75576;SDS011;64157;50.138;14.544;2022-11-11T16:51:23;52.40;;;27.47;;
75576;SDS011;64157;50.138;14.544;2022-11-11T16:53:53;52.00;;;25.55;;
75576;SDS011;64157;50.138;14.544;2022-11-11T16:56:31;53.80;;;27.73;;
75576;SDS011;64157;50.138;14.544;2022-11-11T16:59:02;48.65;;;26.83;;
75576;SDS011;64157;50.138;14.544;2022-11-11T17:01:43;51.80;;;28.00;;
75576;SDS011;64157;50.138;14.544;2022-11-11T17:04:10;65.78;;;30.25;;
75576;SDS011;64157;50.138;14.544;2022-11-11T17:11:56;41.80;;;22.88;;
75576;SDS011;64157;50.138;14.544;2022-11-11T17:14:22;41.22;;;23.17;;
75576;SDS011;64157;50.138;14.544;2022-11-11T17:16:48;39.88;;;22.75;;
75576;SDS011;64157;50.138;14.544;2022-11-11T17:19:14;51.22;;;26.20;;
75576;SDS011;64157;50.138;14.544;2022-11-11T17:21:39;41.00;;;23.98;;
75576;SDS011;64157;50.138;14.544;2022-11-11T17:24:05;38.13;;;21.08;;
75576;SDS011;64157;50.138;14.544;2022-11-11T17:26:30;39.88;;;23.10;;
75576;SDS011;64157;50.138;14.544;2022-11-11T17:28:56;44.97;;;24.73;;
75576;SDS011;64157;50.138;14.544;2022-11-11T17:31:23;40.55;;;24.45;;
75576;SDS011;64157;50.138;14.544;2022-11-11T17:33:49;41.72;;;23.60;;
75576;SDS011;64157;50.138;14.544;2022-11-11T17:36:14;42.28;;;24.98;;
75576;SDS011;64157;50.138;14.544;2022-11-11T17:38:40;44.22;;;24.42;;
75576;SDS011;64157;50.138;14.544;2022-11-11T17:41:05;56.63;;;30.98;;